Terminal Aerodrome Forecast
Issued by NWS

Home | Current Version | Previous Version | Text Only | Print | Product List | Glossary Off
Versions: 1 2 3 4 5 6 7 8 9 10 11 12 13 14 15 16

000
FTUS43 KICT 201700
TAFRSL
TAF
KRSL 201720Z 2018/2118 19016G30KT P6SM FEW070 SCT250
     FM210200 18018G24KT P6SM SCT120
     FM210300 17014KT P6SM VCTS SCT050CB BKN250
     FM211000 20017G25KT P6SM BKN250
     FM211500 21025G35KT P6SM SCT050=

USA.gov is the U.S. government's official web portal to all federal, state and local government web resources and services.